sensor_id;sensor_type;location;lat;lon;timestamp;temperature;humidity
10433;DHT22;5263;48.680;9.004;2023-04-24T00:01:13;9.90;99.90
10433;DHT22;5263;48.680;9.004;2023-04-24T00:03:40;9.70;99.90
10433;DHT22;5263;48.680;9.004;2023-04-24T00:06:06;9.70;99.90
10433;DHT22;5263;48.680;9.004;2023-04-24T00:08:34;9.60;99.90
10433;DHT22;5263;48.680;9.004;2023-04-24T00:11:00;9.70;99.90
10433;DHT22;5263;48.680;9.004;2023-04-24T00:13:25;9.60;99.90
10433;DHT22;5263;48.680;9.004;2023-04-24T00:15:54;9.60;99.90
10433;DHT22;5263;48.680;9.004;2023-04-24T00:18:19;9.70;99.90
10433;DHT22;5263;48.680;9.004;2023-04-24T00:20:45;9.70;99.90
10433;DHT22;5263;48.680;9.004;2023-04-24T00:23:12;9.70;99.90
10433;DHT22;5263;48.680;9.004;2023-04-24T00:25:38;9.60;99.90
10433;DHT22;5263;48.680;9.004;2023-04-24T00:28:03;9.70;99.90
10433;DHT22;5263;48.680;9.004;2023-04-24T00:30:29;9.60;99.90
10433;DHT22;5263;48.680;9.004;2023-04-24T00:32:55;9.60;99.90
10433;DHT22;5263;48.680;9.004;2023-04-24T00:35:20;9.70;99.90
10433;DHT22;5263;48.680;9.004;2023-04-24T00:37:46;9.80;99.90
10433;DHT22;5263;48.680;9.004;2023-04-24T00:40:12;9.80;99.90
10433;DHT22;5263;48.680;9.004;2023-04-24T00:42:38;9.70;99.90
10433;DHT22;5263;48.680;9.004;2023-04-24T00:45:04;9.80;99.90
10433;DHT22;5263;48.680;9.004;2023-04-24T00:47:33;9.90;99.90
10433;DHT22;5263;48.680;9.004;2023-04-24T00:50:00;9.90;99.90
10433;DHT22;5263;48.680;9.004;2023-04-24T00:52:26;10.00;99.90
10433;DHT22;5263;48.680;9.004;2023-04-24T00:54:51;9.90;99.90
10433;DHT22;5263;48.680;9.004;2023-04-24T00:57:17;9.90;99.90
10433;DHT22;5263;48.680;9.004;2023-04-24T00:59:43;9.90;99.90
10433;DHT22;5263;48.680;9.004;2023-04-24T01:02:10;9.80;99.90
10433;DHT22;5263;48.680;9.004;2023-04-24T01:04:37;9.80;99.90
10433;DHT22;5263;48.680;9.004;2023-04-24T01:07:03;9.90;99.90
10433;DHT22;5263;48.680;9.004;2023-04-24T01:09:29;10.00;99.90
10433;DHT22;5263;48.680;9.004;2023-04-24T01:11:55;10.00;99.90
10433;DHT22;5263;48.680;9.004;2023-04-24T01:14:22;9.90;99.90
10433;DHT22;5263;48.680;9.004;2023-04-24T01:16:48;10.00;99.90
10433;DHT22;5263;48.680;9.004;2023-04-24T01:19:14;9.90;99.90
10433;DHT22;5263;48.680;9.004;2023-04-24T01:21:41;9.80;99.90
10433;DHT22;5263;48.680;9.004;2023-04-24T01:24:07;10.00;99.90
10433;DHT22;5263;48.680;9.004;2023-04-24T01:26:33;9.90;99.90
10433;DHT22;5263;48.680;9.004;2023-04-24T01:28:59;9.80;99.90
10433;DHT22;5263;48.680;9.004;2023-04-24T01:31:24;9.90;99.90
10433;DHT22;5263;48.680;9.004;2023-04-24T01:33:51;9.80;99.90
10433;DHT22;5263;48.680;9.004;2023-04-24T01:36:18;9.90;99.90
10433;DHT22;5263;48.680;9.004;2023-04-24T01:38:44;9.90;99.90
10433;DHT22;5263;48.680;9.004;2023-04-24T01:41:10;9.90;99.90
10433;DHT22;5263;48.680;9.004;2023-04-24T01:43:36;10.00;99.90
10433;DHT22;5263;48.680;9.004;2023-04-24T01:46:01;9.90;99.90
10433;DHT22;5263;48.680;9.004;2023-04-24T01:48:27;9.80;99.90
10433;DHT22;5263;48.680;9.004;2023-04-24T01:50:53;9.60;99.90
10433;DHT22;5263;48.680;9.004;2023-04-24T01:53:19;9.70;99.90
10433;DHT22;5263;48.680;9.004;2023-04-24T01:55:44;9.70;99.90
10433;DHT22;5263;48.680;9.004;2023-04-24T01:58:10;9.70;99.90
10433;DHT22;5263;48.680;9.004;2023-04-24T02:00:36;9.60;99.90
10433;DHT22;5263;48.680;9.004;2023-04-24T02:03:01;9.60;99.90
10433;DHT22;5263;48.680;9.004;2023-04-24T02:05:28;9.50;99.90
10433;DHT22;5263;48.680;9.004;2023-04-24T02:07:53;9.50;99.90
10433;DHT22;5263;48.680;9.004;2023-04-24T02:10:19;9.60;99.90
10433;DHT22;5263;48.680;9.004;2023-04-24T02:12:45;9.50;99.90
10433;DHT22;5263;48.680;9.004;2023-04-24T02:15:10;9.50;99.90
10433;DHT22;5263;48.680;9.004;2023-04-24T02:17:37;9.50;99.90
10433;DHT22;5263;48.680;9.004;2023-04-24T02:20:03;9.50;99.90
10433;DHT22;5263;48.680;9.004;2023-04-24T02:22:28;9.40;99.90
10433;DHT22;5263;48.680;9.004;2023-04-24T02:24:54;9.40;99.90
10433;DHT22;5263;48.680;9.004;2023-04-24T02:27:20;9.40;99.90
10433;DHT22;5263;48.680;9.004;2023-04-24T02:29:46;9.40;99.90
10433;DHT22;5263;48.680;9.004;2023-04-24T02:32:11;9.30;99.90
10433;DHT22;5263;48.680;9.004;2023-04-24T02:34:37;9.30;99.90
10433;DHT22;5263;48.680;9.004;2023-04-24T02:37:03;9.30;99.90
10433;DHT22;5263;48.680;9.004;2023-04-24T02:39:29;9.30;99.90
10433;DHT22;5263;48.680;9.004;2023-04-24T02:41:54;9.40;99.90
10433;DHT22;5263;48.680;9.004;2023-04-24T02:44:20;9.30;99.90
10433;DHT22;5263;48.680;9.004;2023-04-24T02:46:47;9.30;99.90
10433;DHT22;5263;48.680;9.004;2023-04-24T02:49:12;9.20;99.90
10433;DHT22;5263;48.680;9.004;2023-04-24T02:51:38;9.30;99.90
10433;DHT22;5263;48.680;9.004;2023-04-24T02:54:09;9.20;99.90
10433;DHT22;5263;48.680;9.004;2023-04-24T02:56:37;9.20;99.90
10433;DHT22;5263;48.680;9.004;2023-04-24T02:59:03;9.30;99.90
10433;DHT22;5263;48.680;9.004;2023-04-24T03:01:29;9.20;99.90
10433;DHT22;5263;48.680;9.004;2023-04-24T03:03:54;9.10;99.90
10433;DHT22;5263;48.680;9.004;2023-04-24T03:06:20;9.10;99.90
10433;DHT22;5263;48.680;9.004;2023-04-24T03:08:46;9.00;99.90
10433;DHT22;5263;48.680;9.004;2023-04-24T03:11:11;9.00;99.90
10433;DHT22;5263;48.680;9.004;2023-04-24T03:13:37;9.10;99.90
10433;DHT22;5263;48.680;9.004;2023-04-24T03:16:03;9.00;99.90
10433;DHT22;5263;48.680;9.004;2023-04-24T03:18:28;9.00;99.90
10433;DHT22;5263;48.680;9.004;2023-04-24T03:20:54;9.00;99.90
10433;DHT22;5263;48.680;9.004;2023-04-24T03:23:19;9.10;99.90
10433;DHT22;5263;48.680;9.004;2023-04-24T03:25:45;9.00;99.90
10433;DHT22;5263;48.680;9.004;2023-04-24T03:28:11;9.00;99.90
10433;DHT22;5263;48.680;9.004;2023-04-24T03:30:36;9.10;99.90
10433;DHT22;5263;48.680;9.004;2023-04-24T03:33:02;8.80;99.90
10433;DHT22;5263;48.680;9.004;2023-04-24T03:35:27;9.00;99.90
10433;DHT22;5263;48.680;9.004;2023-04-24T03:37:53;9.00;99.90
10433;DHT22;5263;48.680;9.004;2023-04-24T03:40:18;8.90;99.90
10433;DHT22;5263;48.680;9.004;2023-04-24T03:42:44;8.90;99.90
10433;DHT22;5263;48.680;9.004;2023-04-24T03:45:10;8.70;99.90
10433;DHT22;5263;48.680;9.004;2023-04-24T03:47:35;8.60;99.90
10433;DHT22;5263;48.680;9.004;2023-04-24T03:50:01;8.80;99.90
10433;DHT22;5263;48.680;9.004;2023-04-24T03:52:27;8.70;99.90
10433;DHT22;5263;48.680;9.004;2023-04-24T03:54:52;8.70;99.90
10433;DHT22;5263;48.680;9.004;2023-04-24T03:57:18;8.80;99.90
10433;DHT22;5263;48.680;9.004;2023-04-24T03:59:43;8.90;99.90
10433;DHT22;5263;48.680;9.004;2023-04-24T04:02:09;8.90;99.90
10433;DHT22;5263;48.680;9.004;2023-04-24T04:04:35;9.00;99.90
10433;DHT22;5263;48.680;9.004;2023-04-24T04:07:00;8.90;99.90
10433;DHT22;5263;48.680;9.004;2023-04-24T04:09:28;8.90;99.90
10433;DHT22;5263;48.680;9.004;2023-04-24T04:11:54;8.90;99.90
10433;DHT22;5263;48.680;9.004;2023-04-24T04:14:21;9.10;99.90
10433;DHT22;5263;48.680;9.004;2023-04-24T04:16:46;9.10;99.90
10433;DHT22;5263;48.680;9.004;2023-04-24T04:19:12;9.00;99.90
10433;DHT22;5263;48.680;9.004;2023-04-24T04:21:38;9.10;99.90
10433;DHT22;5263;48.680;9.004;2023-04-24T04:24:03;9.10;99.90
10433;DHT22;5263;48.680;9.004;2023-04-24T04:26:30;9.00;99.90
10433;DHT22;5263;48.680;9.004;2023-04-24T04:28:58;9.20;99.90
10433;DHT22;5263;48.680;9.004;2023-04-24T04:31:24;8.90;99.90
10433;DHT22;5263;48.680;9.004;2023-04-24T04:33:50;8.60;99.90
10433;DHT22;5263;48.680;9.004;2023-04-24T04:36:15;8.40;99.90
10433;DHT22;5263;48.680;9.004;2023-04-24T04:38:43;8.20;99.90
10433;DHT22;5263;48.680;9.004;2023-04-24T04:41:10;8.00;99.90
10433;DHT22;5263;48.680;9.004;2023-04-24T04:43:36;8.00;99.90
10433;DHT22;5263;48.680;9.004;2023-04-24T04:46:01;8.00;99.90
10433;DHT22;5263;48.680;9.004;2023-04-24T04:48:28;7.90;99.90
10433;DHT22;5263;48.680;9.004;2023-04-24T04:50:57;7.80;99.90
10433;DHT22;5263;48.680;9.004;2023-04-24T04:53:23;7.80;99.90
10433;DHT22;5263;48.680;9.004;2023-04-24T04:55:48;7.80;99.90
10433;DHT22;5263;48.680;9.004;2023-04-24T04:58:14;7.90;99.90
10433;DHT22;5263;48.680;9.004;2023-04-24T05:00:40;7.80;99.90
10433;DHT22;5263;48.680;9.004;2023-04-24T05:03:06;7.80;99.90
10433;DHT22;5263;48.680;9.004;2023-04-24T05:05:32;7.70;99.90
10433;DHT22;5263;48.680;9.004;2023-04-24T05:07:58;7.60;99.90
10433;DHT22;5263;48.680;9.004;2023-04-24T05:10:23;7.70;99.90
10433;DHT22;5263;48.680;9.004;2023-04-24T05:12:49;7.70;99.90
10433;DHT22;5263;48.680;9.004;2023-04-24T05:15:15;7.80;99.90
10433;DHT22;5263;48.680;9.004;2023-04-24T05:17:40;7.70;99.90
10433;DHT22;5263;48.680;9.004;2023-04-24T05:20:06;7.50;99.90
10433;DHT22;5263;48.680;9.004;2023-04-24T05:22:32;7.70;99.90
10433;DHT22;5263;48.680;9.004;2023-04-24T05:24:58;7.60;99.90
10433;DHT22;5263;48.680;9.004;2023-04-24T05:27:24;7.80;99.90
10433;DHT22;5263;48.680;9.004;2023-04-24T05:29:50;7.80;99.90
10433;DHT22;5263;48.680;9.004;2023-04-24T05:32:16;7.80;99.90
10433;DHT22;5263;48.680;9.004;2023-04-24T05:34:41;8.20;99.90
10433;DHT22;5263;48.680;9.004;2023-04-24T05:37:07;7.90;99.90
10433;DHT22;5263;48.680;9.004;2023-04-24T05:39:35;7.70;99.90
10433;DHT22;5263;48.680;9.004;2023-04-24T05:42:01;7.70;99.90
10433;DHT22;5263;48.680;9.004;2023-04-24T05:44:27;7.80;99.90
10433;DHT22;5263;48.680;9.004;2023-04-24T05:46:53;7.70;99.90
10433;DHT22;5263;48.680;9.004;2023-04-24T05:49:20;7.70;99.90
10433;DHT22;5263;48.680;9.004;2023-04-24T05:51:46;7.90;99.90
10433;DHT22;5263;48.680;9.004;2023-04-24T05:54:11;8.00;99.90
10433;DHT22;5263;48.680;9.004;2023-04-24T05:56:38;7.80;99.90
10433;DHT22;5263;48.680;9.004;2023-04-24T05:59:03;7.70;99.90
10433;DHT22;5263;48.680;9.004;2023-04-24T06:01:29;7.80;99.90
10433;DHT22;5263;48.680;9.004;2023-04-24T06:03:55;7.70;99.90
10433;DHT22;5263;48.680;9.004;2023-04-24T06:06:20;8.10;99.90
10433;DHT22;5263;48.680;9.004;2023-04-24T06:08:46;8.20;99.90
10433;DHT22;5263;48.680;9.004;2023-04-24T06:11:11;8.40;99.90
10433;DHT22;5263;48.680;9.004;2023-04-24T06:13:37;7.60;99.90
10433;DHT22;5263;48.680;9.004;2023-04-24T06:16:03;7.80;99.90
10433;DHT22;5263;48.680;9.004;2023-04-24T06:18:28;8.10;99.90
10433;DHT22;5263;48.680;9.004;2023-04-24T06:20:54;8.60;99.90
10433;DHT22;5263;48.680;9.004;2023-04-24T06:23:20;8.40;99.90
10433;DHT22;5263;48.680;9.004;2023-04-24T06:25:46;8.70;99.90
10433;DHT22;5263;48.680;9.004;2023-04-24T06:28:12;8.90;99.90
10433;DHT22;5263;48.680;9.004;2023-04-24T06:30:38;10.00;99.90
10433;DHT22;5263;48.680;9.004;2023-04-24T06:33:03;9.50;99.90
10433;DHT22;5263;48.680;9.004;2023-04-24T06:35:29;9.40;99.90
10433;DHT22;5263;48.680;9.004;2023-04-24T06:37:55;10.30;99.90
10433;DHT22;5263;48.680;9.004;2023-04-24T06:40:21;9.40;99.90
10433;DHT22;5263;48.680;9.004;2023-04-24T06:42:47;9.50;99.90
10433;DHT22;5263;48.680;9.004;2023-04-24T06:45:13;9.60;99.90
10433;DHT22;5263;48.680;9.004;2023-04-24T06:47:38;10.30;99.90
10433;DHT22;5263;48.680;9.004;2023-04-24T06:50:04;10.50;99.90
10433;DHT22;5263;48.680;9.004;2023-04-24T06:52:30;10.40;99.90
10433;DHT22;5263;48.680;9.004;2023-04-24T06:55:02;10.20;99.90
10433;DHT22;5263;48.680;9.004;2023-04-24T06:57:28;10.30;99.90
10433;DHT22;5263;48.680;9.004;2023-04-24T06:59:54;10.10;99.90
10433;DHT22;5263;48.680;9.004;2023-04-24T07:02:19;10.40;99.90
10433;DHT22;5263;48.680;9.004;2023-04-24T07:04:45;9.70;99.90
10433;DHT22;5263;48.680;9.004;2023-04-24T07:07:12;9.60;99.90
10433;DHT22;5263;48.680;9.004;2023-04-24T07:09:39;10.00;99.90
10433;DHT22;5263;48.680;9.004;2023-04-24T07:12:08;10.00;99.90
10433;DHT22;5263;48.680;9.004;2023-04-24T07:14:33;9.10;99.90
10433;DHT22;5263;48.680;9.004;2023-04-24T07:16:59;8.90;99.90
10433;DHT22;5263;48.680;9.004;2023-04-24T07:19:25;8.80;99.90
10433;DHT22;5263;48.680;9.004;2023-04-24T07:21:50;9.40;99.90
10433;DHT22;5263;48.680;9.004;2023-04-24T07:24:16;8.90;99.90
10433;DHT22;5263;48.680;9.004;2023-04-24T07:26:41;9.10;99.90
10433;DHT22;5263;48.680;9.004;2023-04-24T07:29:07;9.20;99.90
10433;DHT22;5263;48.680;9.004;2023-04-24T07:31:33;9.70;99.90
10433;DHT22;5263;48.680;9.004;2023-04-24T07:33:59;9.80;99.90
10433;DHT22;5263;48.680;9.004;2023-04-24T07:36:24;9.90;99.90
10433;DHT22;5263;48.680;9.004;2023-04-24T07:38:51;10.10;99.90
10433;DHT22;5263;48.680;9.004;2023-04-24T07:41:16;10.30;99.90
10433;DHT22;5263;48.680;9.004;2023-04-24T07:43:42;10.30;99.90
10433;DHT22;5263;48.680;9.004;2023-04-24T07:46:08;10.50;99.90
10433;DHT22;5263;48.680;9.004;2023-04-24T07:48:34;10.20;99.90
10433;DHT22;5263;48.680;9.004;2023-04-24T07:51:00;10.20;99.90
10433;DHT22;5263;48.680;9.004;2023-04-24T07:53:25;10.00;99.90
10433;DHT22;5263;48.680;9.004;2023-04-24T07:55:51;10.10;99.90
10433;DHT22;5263;48.680;9.004;2023-04-24T07:58:17;10.30;99.90
10433;DHT22;5263;48.680;9.004;2023-04-24T08:00:42;10.20;99.90
10433;DHT22;5263;48.680;9.004;2023-04-24T08:03:08;10.50;99.90
10433;DHT22;5263;48.680;9.004;2023-04-24T08:05:33;10.40;99.90
10433;DHT22;5263;48.680;9.004;2023-04-24T08:07:59;10.50;99.90
10433;DHT22;5263;48.680;9.004;2023-04-24T08:10:25;10.30;99.90
10433;DHT22;5263;48.680;9.004;2023-04-24T08:12:51;10.20;99.90
10433;DHT22;5263;48.680;9.004;2023-04-24T08:15:17;10.10;99.90
10433;DHT22;5263;48.680;9.004;2023-04-24T08:17:43;10.00;99.90
10433;DHT22;5263;48.680;9.004;2023-04-24T08:20:10;10.20;99.90
10433;DHT22;5263;48.680;9.004;2023-04-24T08:22:42;10.20;99.90
10433;DHT22;5263;48.680;9.004;2023-04-24T08:25:09;10.30;99.90
10433;DHT22;5263;48.680;9.004;2023-04-24T08:27:35;10.30;99.90
10433;DHT22;5263;48.680;9.004;2023-04-24T08:30:03;10.50;99.90
10433;DHT22;5263;48.680;9.004;2023-04-24T08:32:29;10.70;99.90
10433;DHT22;5263;48.680;9.004;2023-04-24T08:34:58;10.80;99.90
10433;DHT22;5263;48.680;9.004;2023-04-24T08:37:26;10.60;99.90
10433;DHT22;5263;48.680;9.004;2023-04-24T08:39:52;10.40;99.90
10433;DHT22;5263;48.680;9.004;2023-04-24T08:42:19;10.20;99.90
10433;DHT22;5263;48.680;9.004;2023-04-24T08:44:47;10.10;99.90
10433;DHT22;5263;48.680;9.004;2023-04-24T08:47:15;10.20;99.90
10433;DHT22;5263;48.680;9.004;2023-04-24T08:49:41;10.00;99.90
10433;DHT22;5263;48.680;9.004;2023-04-24T08:52:06;10.20;99.90
10433;DHT22;5263;48.680;9.004;2023-04-24T08:54:36;10.20;99.90
10433;DHT22;5263;48.680;9.004;2023-04-24T08:57:03;10.20;99.90
10433;DHT22;5263;48.680;9.004;2023-04-24T08:59:32;10.50;99.90
10433;DHT22;5263;48.680;9.004;2023-04-24T09:01:59;10.30;99.90
10433;DHT22;5263;48.680;9.004;2023-04-24T09:04:25;10.50;99.90
10433;DHT22;5263;48.680;9.004;2023-04-24T09:06:54;10.80;99.90
10433;DHT22;5263;48.680;9.004;2023-04-24T09:09:20;10.90;99.90
10433;DHT22;5263;48.680;9.004;2023-04-24T09:11:46;10.50;99.90
10433;DHT22;5263;48.680;9.004;2023-04-24T09:14:14;10.50;99.90
10433;DHT22;5263;48.680;9.004;2023-04-24T09:16:40;10.50;99.90
10433;DHT22;5263;48.680;9.004;2023-04-24T09:19:05;10.80;99.90
10433;DHT22;5263;48.680;9.004;2023-04-24T09:21:32;10.90;99.90
10433;DHT22;5263;48.680;9.004;2023-04-24T09:24:00;10.90;99.90
10433;DHT22;5263;48.680;9.004;2023-04-24T09:26:29;10.80;99.90
10433;DHT22;5263;48.680;9.004;2023-04-24T09:28:57;11.20;99.90
10433;DHT22;5263;48.680;9.004;2023-04-24T09:31:23;11.60;99.90
10433;DHT22;5263;48.680;9.004;2023-04-24T09:34:04;11.60;99.90
10433;DHT22;5263;48.680;9.004;2023-04-24T09:36:39;11.70;99.90
10433;DHT22;5263;48.680;9.004;2023-04-24T09:39:11;11.70;99.90
10433;DHT22;5263;48.680;9.004;2023-04-24T09:41:57;11.20;99.90
10433;DHT22;5263;48.680;9.004;2023-04-24T09:44:24;11.40;99.90
10433;DHT22;5263;48.680;9.004;2023-04-24T09:49:25;11.00;99.90
10433;DHT22;5263;48.680;9.004;2023-04-24T09:51:51;11.10;99.90
10433;DHT22;5263;48.680;9.004;2023-04-24T09:54:19;11.00;99.90
10433;DHT22;5263;48.680;9.004;2023-04-24T09:56:47;10.80;99.90
10433;DHT22;5263;48.680;9.004;2023-04-24T09:59:17;10.80;99.90
10433;DHT22;5263;48.680;9.004;2023-04-24T10:01:43;10.80;99.90
10433;DHT22;5263;48.680;9.004;2023-04-24T10:04:22;11.20;99.90
10433;DHT22;5263;48.680;9.004;2023-04-24T10:06:49;11.50;99.90
10433;DHT22;5263;48.680;9.004;2023-04-24T10:09:17;11.70;99.90
10433;DHT22;5263;48.680;9.004;2023-04-24T10:11:44;12.40;99.90
10433;DHT22;5263;48.680;9.004;2023-04-24T10:14:29;13.50;99.90
10433;DHT22;5263;48.680;9.004;2023-04-24T10:16:55;14.40;99.90
10433;DHT22;5263;48.680;9.004;2023-04-24T10:19:25;14.50;99.90
10433;DHT22;5263;48.680;9.004;2023-04-24T10:21:52;13.50;99.90
10433;DHT22;5263;48.680;9.004;2023-04-24T10:24:19;12.90;99.90
10433;DHT22;5263;48.680;9.004;2023-04-24T10:26:48;12.30;99.90
10433;DHT22;5263;48.680;9.004;2023-04-24T10:29:16;11.00;99.90
10433;DHT22;5263;48.680;9.004;2023-04-24T10:31:42;11.40;99.90
10433;DHT22;5263;48.680;9.004;2023-04-24T10:34:10;11.30;99.90
10433;DHT22;5263;48.680;9.004;2023-04-24T10:36:41;11.90;99.90
10433;DHT22;5263;48.680;9.004;2023-04-24T10:39:11;12.20;99.90
10433;DHT22;5263;48.680;9.004;2023-04-24T10:41:37;12.20;99.90
10433;DHT22;5263;48.680;9.004;2023-04-24T10:44:10;12.10;99.90
10433;DHT22;5263;48.680;9.004;2023-04-24T10:46:36;12.00;99.90
10433;DHT22;5263;48.680;9.004;2023-04-24T10:49:06;12.20;99.90
10433;DHT22;5263;48.680;9.004;2023-04-24T10:51:53;11.20;99.90
10433;DHT22;5263;48.680;9.004;2023-04-24T10:54:33;10.70;99.90
10433;DHT22;5263;48.680;9.004;2023-04-24T11:02:38;11.40;99.90
10433;DHT22;5263;48.680;9.004;2023-04-24T11:05:06;10.90;99.90
10433;DHT22;5263;48.680;9.004;2023-04-24T11:11:03;11.80;99.90
10433;DHT22;5263;48.680;9.004;2023-04-24T11:19:20;11.50;99.90
10433;DHT22;5263;48.680;9.004;2023-04-24T11:22:03;11.30;99.90
10433;DHT22;5263;48.680;9.004;2023-04-24T11:34:52;10.00;99.90
10433;DHT22;5263;48.680;9.004;2023-04-24T11:37:18;10.20;99.90
10433;DHT22;5263;48.680;9.004;2023-04-24T11:39:44;10.30;99.90
10433;DHT22;5263;48.680;9.004;2023-04-24T11:42:09;10.20;99.90
10433;DHT22;5263;48.680;9.004;2023-04-24T11:44:35;10.30;99.90
10433;DHT22;5263;48.680;9.004;2023-04-24T11:47:05;10.50;99.90
10433;DHT22;5263;48.680;9.004;2023-04-24T11:49:32;10.80;99.90
10433;DHT22;5263;48.680;9.004;2023-04-24T11:51:59;11.30;99.90
10433;DHT22;5263;48.680;9.004;2023-04-24T11:54:25;11.50;99.90
10433;DHT22;5263;48.680;9.004;2023-04-24T11:56:51;11.80;99.90
10433;DHT22;5263;48.680;9.004;2023-04-24T11:59:16;11.60;99.90
10433;DHT22;5263;48.680;9.004;2023-04-24T12:01:46;11.00;99.90
10433;DHT22;5263;48.680;9.004;2023-04-24T12:04:13;10.20;99.90
10433;DHT22;5263;48.680;9.004;2023-04-24T12:06:38;10.20;99.90
10433;DHT22;5263;48.680;9.004;2023-04-24T12:09:04;10.20;99.90
10433;DHT22;5263;48.680;9.004;2023-04-24T12:11:30;10.00;99.90
10433;DHT22;5263;48.680;9.004;2023-04-24T12:13:55;10.00;99.90
10433;DHT22;5263;48.680;9.004;2023-04-24T12:16:21;10.20;99.90
10433;DHT22;5263;48.680;9.004;2023-04-24T12:18:47;10.10;99.90
10433;DHT22;5263;48.680;9.004;2023-04-24T12:21:20;10.30;99.90
10433;DHT22;5263;48.680;9.004;2023-04-24T12:23:46;10.70;99.90
10433;DHT22;5263;48.680;9.004;2023-04-24T12:26:16;11.20;99.90
10433;DHT22;5263;48.680;9.004;2023-04-24T12:28:45;11.00;99.90
10433;DHT22;5263;48.680;9.004;2023-04-24T12:31:11;11.20;99.90
10433;DHT22;5263;48.680;9.004;2023-04-24T12:33:37;11.10;99.90
10433;DHT22;5263;48.680;9.004;2023-04-24T12:36:03;11.40;99.90
10433;DHT22;5263;48.680;9.004;2023-04-24T12:38:30;11.60;99.90
10433;DHT22;5263;48.680;9.004;2023-04-24T12:41:03;11.80;99.90
10433;DHT22;5263;48.680;9.004;2023-04-24T12:43:32;11.80;99.90
10433;DHT22;5263;48.680;9.004;2023-04-24T12:45:58;11.00;99.90
10433;DHT22;5263;48.680;9.004;2023-04-24T12:48:25;10.60;99.90
10433;DHT22;5263;48.680;9.004;2023-04-24T12:50:51;10.80;99.90
10433;DHT22;5263;48.680;9.004;2023-04-24T12:53:17;11.00;99.90
10433;DHT22;5263;48.680;9.004;2023-04-24T12:55:43;10.80;99.90
10433;DHT22;5263;48.680;9.004;2023-04-24T12:58:09;11.00;99.90
10433;DHT22;5263;48.680;9.004;2023-04-24T13:00:35;10.90;99.90
10433;DHT22;5263;48.680;9.004;2023-04-24T13:03:01;10.70;99.90
10433;DHT22;5263;48.680;9.004;2023-04-24T13:05:27;10.80;99.90
10433;DHT22;5263;48.680;9.004;2023-04-24T13:07:53;10.90;99.90
10433;DHT22;5263;48.680;9.004;2023-04-24T13:10:18;10.40;99.90
10433;DHT22;5263;48.680;9.004;2023-04-24T13:12:44;10.10;99.90
10433;DHT22;5263;48.680;9.004;2023-04-24T13:15:11;10.50;99.90
10433;DHT22;5263;48.680;9.004;2023-04-24T13:17:37;10.60;99.90
10433;DHT22;5263;48.680;9.004;2023-04-24T13:20:04;10.70;99.90
10433;DHT22;5263;48.680;9.004;2023-04-24T13:22:30;10.40;99.90
10433;DHT22;5263;48.680;9.004;2023-04-24T13:24:56;10.30;99.90
10433;DHT22;5263;48.680;9.004;2023-04-24T13:27:22;9.80;99.90
10433;DHT22;5263;48.680;9.004;2023-04-24T13:29:48;9.60;99.90
10433;DHT22;5263;48.680;9.004;2023-04-24T13:32:13;9.50;99.90
10433;DHT22;5263;48.680;9.004;2023-04-24T13:34:39;9.50;99.90
10433;DHT22;5263;48.680;9.004;2023-04-24T13:37:05;9.50;99.90
10433;DHT22;5263;48.680;9.004;2023-04-24T13:39:31;9.40;99.90
10433;DHT22;5263;48.680;9.004;2023-04-24T13:41:57;9.40;99.90
10433;DHT22;5263;48.680;9.004;2023-04-24T13:44:23;9.60;99.90
10433;DHT22;5263;48.680;9.004;2023-04-24T13:46:51;10.00;99.90
10433;DHT22;5263;48.680;9.004;2023-04-24T13:49:18;10.40;99.90
10433;DHT22;5263;48.680;9.004;2023-04-24T13:51:44;10.80;99.90
10433;DHT22;5263;48.680;9.004;2023-04-24T13:54:11;10.70;99.90
10433;DHT22;5263;48.680;9.004;2023-04-24T13:56:36;11.10;99.90
10433;DHT22;5263;48.680;9.004;2023-04-24T13:59:02;11.10;99.90
10433;DHT22;5263;48.680;9.004;2023-04-24T14:01:28;11.00;99.90
10433;DHT22;5263;48.680;9.004;2023-04-24T14:03:54;10.80;99.90
10433;DHT22;5263;48.680;9.004;2023-04-24T14:06:21;10.60;99.90
10433;DHT22;5263;48.680;9.004;2023-04-24T14:08:47;10.50;99.90
10433;DHT22;5263;48.680;9.004;2023-04-24T14:11:13;10.40;99.90
10433;DHT22;5263;48.680;9.004;2023-04-24T14:13:39;10.10;99.90
10433;DHT22;5263;48.680;9.004;2023-04-24T14:16:06;9.30;99.90
10433;DHT22;5263;48.680;9.004;2023-04-24T14:18:31;9.20;99.90
10433;DHT22;5263;48.680;9.004;2023-04-24T14:20:57;9.20;99.90
10433;DHT22;5263;48.680;9.004;2023-04-24T14:23:23;9.40;99.90
10433;DHT22;5263;48.680;9.004;2023-04-24T14:25:49;9.60;99.90
10433;DHT22;5263;48.680;9.004;2023-04-24T14:28:20;9.90;99.90
10433;DHT22;5263;48.680;9.004;2023-04-24T14:30:47;10.30;99.90
10433;DHT22;5263;48.680;9.004;2023-04-24T14:33:12;10.60;99.90
10433;DHT22;5263;48.680;9.004;2023-04-24T14:35:39;10.80;99.90
10433;DHT22;5263;48.680;9.004;2023-04-24T14:38:05;11.00;99.90
10433;DHT22;5263;48.680;9.004;2023-04-24T14:40:31;11.10;99.90
10433;DHT22;5263;48.680;9.004;2023-04-24T14:42:58;11.20;99.90
10433;DHT22;5263;48.680;9.004;2023-04-24T14:45:24;12.10;99.90
10433;DHT22;5263;48.680;9.004;2023-04-24T14:47:50;13.00;99.90
10433;DHT22;5263;48.680;9.004;2023-04-24T14:50:16;14.20;99.90
10433;DHT22;5263;48.680;9.004;2023-04-24T14:52:41;13.60;99.90
10433;DHT22;5263;48.680;9.004;2023-04-24T14:55:07;12.90;99.90
10433;DHT22;5263;48.680;9.004;2023-04-24T14:57:34;12.10;99.90
10433;DHT22;5263;48.680;9.004;2023-04-24T15:00:00;11.90;99.90
10433;DHT22;5263;48.680;9.004;2023-04-24T15:02:25;11.50;99.90
10433;DHT22;5263;48.680;9.004;2023-04-24T15:04:51;11.40;99.90
10433;DHT22;5263;48.680;9.004;2023-04-24T15:07:16;10.70;99.90
10433;DHT22;5263;48.680;9.004;2023-04-24T15:09:42;10.40;99.90
10433;DHT22;5263;48.680;9.004;2023-04-24T15:12:08;10.40;99.90
10433;DHT22;5263;48.680;9.004;2023-04-24T15:14:35;10.40;99.90
10433;DHT22;5263;48.680;9.004;2023-04-24T15:17:00;10.30;99.90
10433;DHT22;5263;48.680;9.004;2023-04-24T15:19:26;10.20;99.90
10433;DHT22;5263;48.680;9.004;2023-04-24T15:21:52;9.90;99.90
10433;DHT22;5263;48.680;9.004;2023-04-24T15:24:17;10.00;99.90
10433;DHT22;5263;48.680;9.004;2023-04-24T15:26:43;9.90;99.90
10433;DHT22;5263;48.680;9.004;2023-04-24T15:29:08;10.00;99.90
10433;DHT22;5263;48.680;9.004;2023-04-24T15:31:34;9.80;99.90
10433;DHT22;5263;48.680;9.004;2023-04-24T15:33:59;10.10;99.90
10433;DHT22;5263;48.680;9.004;2023-04-24T15:36:25;10.00;99.90
10433;DHT22;5263;48.680;9.004;2023-04-24T15:38:51;10.30;99.90
10433;DHT22;5263;48.680;9.004;2023-04-24T15:41:16;10.50;99.90
10433;DHT22;5263;48.680;9.004;2023-04-24T15:43:42;10.40;99.90
10433;DHT22;5263;48.680;9.004;2023-04-24T15:46:08;10.60;99.90
10433;DHT22;5263;48.680;9.004;2023-04-24T15:48:34;10.70;99.90
10433;DHT22;5263;48.680;9.004;2023-04-24T15:51:00;10.80;99.90
10433;DHT22;5263;48.680;9.004;2023-04-24T15:53:26;10.80;99.90
10433;DHT22;5263;48.680;9.004;2023-04-24T15:55:52;11.10;99.90
10433;DHT22;5263;48.680;9.004;2023-04-24T15:58:20;11.40;99.90
10433;DHT22;5263;48.680;9.004;2023-04-24T16:00:48;11.70;99.90
10433;DHT22;5263;48.680;9.004;2023-04-24T16:03:14;11.70;99.90
10433;DHT22;5263;48.680;9.004;2023-04-24T16:05:39;11.50;99.90
10433;DHT22;5263;48.680;9.004;2023-04-24T16:08:05;11.40;99.90
10433;DHT22;5263;48.680;9.004;2023-04-24T16:10:31;11.40;99.90
10433;DHT22;5263;48.680;9.004;2023-04-24T16:12:58;11.10;99.90
10433;DHT22;5263;48.680;9.004;2023-04-24T16:15:25;11.20;99.90
10433;DHT22;5263;48.680;9.004;2023-04-24T16:17:51;11.30;99.90